Sunday, January 20, 2019, 1:23 AM GMT
Back to Local

CYSC, Sherbrooke, Que.

Location: , , Canada Lat: 45.4
Local Time: 1:23 AM GMT ( 1:23 GMT) Lon: -71.883
Time Zone: GMT Elev: 557 ft

Show me the last for .
Show Coded

Time T Td Feel RH Dir Speed Gust Alt SLP Vis Weather Sky Remarks
2019-01-20 01:00 -2 -8 -17 77 50° 8 - 30.23 30.32 6 -SN BKN018 None
2019-01-20 00:57 -2 -8 -14 77 50° 6 - 30.23 30.32 6 -SN BKN016 None
2019-01-20 00:41 -2 -8 -14 77 50° 6 - 30.24 30.33 8 -SN SCT012 Pressure falling rapidly
2019-01-20 00:39 -2 -8 -14 77 40° 6 - 30.25 30.33 6 -SN BKN012 None
2019-01-20 00:30 -2 -8 -12 77 40° 5 - 30.25 30.33 3 -SN OVC014 None
2019-01-20 00:22 -4 -8 -15 83 50° 5 - 30.25 30.34 2 -SN OVC014 None
2019-01-20 00:00 -4 -8 -18 83 50° 7 - 30.27 30.35 5 -SN BKN016 None
2019-01-19 23:43 -4 -8 -18 83 60° 7 - 30.27 30.36 3 -SN OVC014 None
2019-01-19 23:13 -4 -9 -18 76 60° 7 - 30.29 30.37 2 -SN OVC014 None
2019-01-19 23:00 -4 -8 -15 83 60° 5 - 30.29 30.37 1 -SN OVC014 None
2019-01-19 22:10 -4 -11 - 70 Variable 2 - 30.31 30.40 1 -SN BKN016 None
2019-01-19 22:07 -4 -11 - 70 Variable 2 - 30.32 30.40 2 -SN BKN016 None
2019-01-19 22:03 -4 -11 - 70 - Calm - 30.32 30.40 3 -SN BKN018 None
2019-01-19 22:00 -4 -13 - 64 Variable 2 - 30.32 30.40 4 -SN SCT018 None
2019-01-19 21:59 -4 -13 - 64 Variable 2 - 30.32 30.40 5 -SN SCT018 None
2019-01-19 21:15 -4 -13 -12 64 280° 3 - 30.33 30.41 9 -SN FEW240 None
2019-01-19 21:00 -4 -13 -12 64 310° 3 - 30.33 30.41 9 FEW038 SCT250 None
2019-01-19 20:00 -4 -15 - 58 - Calm - 30.31 30.39 9 FEW250 None
2019-01-19 19:00 -6 -15 - 63 Variable 2 - 30.30 30.38 9 CLR None
2019-01-19 18:00 -6 -17 - 58 Variable 2 - 30.33 30.40 9 CLR None
2019-01-19 17:00 -8 -17 -19 63 250° 5 - 30.38 30.45 9 CLR None
2019-01-19 16:00 -8 -17 -17 63 280° 3 - 30.39 30.46 9 CLR None
2019-01-19 15:00 -9 -18 -19 63 250° 3 - 30.41 30.48 9 CLR None
2019-01-19 14:00 -9 -18 -21 63 270° 5 - 30.40 30.47 9 FEW250 None
2019-01-19 13:00 -11 -18 -23 69 290° 5 - 30.36 30.44 9 FEW240 None
2019-01-19 12:00 -9 -18 - 63 Variable 2 - 30.33 30.40 9 CLR None
2019-01-19 11:00 -9 -15 -24 76 300° 7 - 30.30 30.37 9 CLR None
2019-01-19 10:00 -6 -17 -18 58 290° 6 - 30.29 30.35 9 CLR None
2019-01-19 09:00 -2 -11 -17 64 320° 8 - 30.26 30.32 9 SCT050 None
2019-01-19 08:00 1 -6 -11 70 330° 7 - 30.23 30.29 9 CLR None
2019-01-19 07:00 3 -6 -11 65 320° 9 - 30.20 30.26 9 CLR None
2019-01-19 06:00 7 -4 -8 60 290° 10 - 30.17 30.22 9 CLR None
2019-01-19 05:00 10 3 -3 72 300° 10 - 30.14 30.20 9 CLR None
2019-01-19 04:51 10 3 -7 72 300° 7 17 30.14 30.19 9 FEW017 None
2019-01-19 04:33 12 7 -5 78 290° 13 18 30.14 30.19 9 -SN SCT017 None
2019-01-19 04:20 12 7 -5 78 300° 13 18 30.13 30.18 9 -SN BKN017 None
2019-01-19 04:03 12 7 1 78 300° 8 - 30.12 30.18 9 -SN FEW019 None
2019-01-19 04:00 12 7 0 78 290° 9 - 30.12 30.18 9 CLR None
2019-01-19 03:37 14 7 -3 72 290° 13 18 30.12 30.17 9 CLR None
2019-01-19 03:09 14 9 2 78 280° 9 - 30.11 30.16 9 -SN SCT060 None
2019-01-19 03:00 16 9 3 72 290° 10 - 30.11 30.16 9 BKN060 None
2019-01-19 02:35 16 9 2 72 280° 13 - 30.09 30.15 9 BKN060 None
2019-01-19 02:20 16 10 3 78 290° 12 - 30.08 30.14 9 -SN BKN060 None
2019-01-19 02:00 16 10 0 78 290° 8 17 30.07 30.13 9 FEW021 BKN060 None
2019-01-19 01:59 16 10 0 78 290° 9 17 30.07 30.13 9 FEW021 BKN060 None

Support USWX by starting your Amazon purchase here.